Time;durP1;ratioP1;P1;durP2;ratioP2;P2;SDS_P1;SDS_P2;PMS_P1;PMS_P2;Temp;Humidity;BMP_temperature;BMP_pressure;BME280_temperature;BME280_humidity;BME280_pressure;Samples;Min_cycle;Max_cycle;Signal;HPM_P1;HPM_P2
2021/01/07 00:03:00;;;;;;;31.98;15.52;;;;;;;6.26;100.00;94430.91;10530410;28;20395;-76
2021/01/07 00:08:01;;;;;;;30.23;14.73;;;;;;;6.40;100.00;94429.44;10512406;28;20020;-76
2021/01/07 00:13:01;;;;;;;25.45;13.93;;;;;;;6.41;100.00;94417.72;10530389;28;20269;-76
2021/01/07 00:18:02;;;;;;;32.63;15.53;;;;;;;6.36;100.00;94424.88;10511541;28;20031;-76
2021/01/07 00:23:02;;;;;;;27.60;13.38;;;;;;;6.35;100.00;94424.06;10529647;28;20074;-76
2021/01/07 00:28:03;;;;;;;25.52;13.25;;;;;;;6.01;100.00;94418.94;10529966;28;20028;-76
2021/01/07 00:33:04;;;;;;;31.52;15.65;;;;;;;6.03;100.00;94419.50;10529918;28;20032;-76
2021/01/07 00:38:05;;;;;;;32.40;14.70;;;;;;;6.05;100.00;94427.25;10530226;28;20031;-76
2021/01/07 00:43:05;;;;;;;35.70;15.48;;;;;;;6.04;100.00;94423.81;10511091;28;20020;-76
2021/01/07 00:48:07;;;;;;;34.05;16.17;;;;;;;6.08;100.00;94424.09;10511879;28;20040;-76
2021/01/07 00:53:07;;;;;;;33.55;15.10;;;;;;;6.09;100.00;94405.16;10528841;28;20024;-76
2021/01/07 00:58:08;;;;;;;26.67;13.60;;;;;;;6.03;100.00;94416.84;10516149;28;20024;-76
2021/01/07 01:03:08;;;;;;;23.73;13.60;;;;;;;6.01;100.00;94408.28;10537808;28;20024;-77
2021/01/07 01:08:09;;;;;;;29.40;14.40;;;;;;;6.00;100.00;94401.34;10536705;28;20024;-76
2021/01/07 01:13:10;;;;;;;23.73;14.90;;;;;;;6.00;100.00;94414.69;10519188;28;20266;-76
2021/01/07 01:18:11;;;;;;;26.55;12.38;;;;;;;5.84;100.00;94389.69;10536534;28;20052;-76
2021/01/07 01:23:11;;;;;;;21.95;12.73;;;;;;;5.81;100.00;94379.53;10535828;28;20028;-76
2021/01/07 01:28:11;;;;;;;23.60;11.33;;;;;;;5.68;100.00;94377.25;10536460;28;20031;-76
2021/01/07 01:33:12;;;;;;;25.13;12.60;;;;;;;5.86;100.00;94374.25;10518203;28;20357;-77
2021/01/07 01:38:12;;;;;;;21.27;11.48;;;;;;;5.91;100.00;94371.59;10536126;28;20024;-76
2021/01/07 01:43:13;;;;;;;18.45;10.50;;;;;;;6.00;100.00;94369.34;10535728;28;20020;-76
2021/01/07 01:48:13;;;;;;;24.13;12.90;;;;;;;6.01;100.00;94351.47;10535694;28;20032;-77
2021/01/07 01:53:14;;;;;;;22.38;13.35;;;;;;;5.97;100.00;94359.97;10538060;28;20027;-77
2021/01/07 01:58:15;;;;;;;29.80;15.35;;;;;;;5.90;100.00;94335.34;10537379;28;20028;-78
2021/01/07 02:03:15;;;;;;;27.80;13.80;;;;;;;5.93;100.00;94321.50;10537532;28;20036;-78
2021/01/07 02:08:16;;;;;;;27.10;14.77;;;;;;;5.85;100.00;94316.63;10519866;28;20766;-79
2021/01/07 02:13:16;;;;;;;19.23;10.38;;;;;;;5.84;100.00;94320.34;10537053;28;20281;-78
2021/01/07 02:18:17;;;;;;;14.93;9.55;;;;;;;5.81;100.00;94291.53;10537395;28;20047;-78
2021/01/07 02:23:17;;;;;;;19.95;9.90;;;;;;;5.79;100.00;94277.63;10536883;28;20115;-79
2021/01/07 02:28:18;;;;;;;19.63;9.07;;;;;;;5.83;100.00;94278.72;10491581;28;20127;-78
2021/01/07 02:33:18;;;;;;;19.65;8.35;;;;;;;5.88;100.00;94268.09;10476776;28;20032;-78
2021/01/07 02:38:19;;;;;;;10.80;5.70;;;;;;;6.15;100.00;94264.59;10493852;28;20024;-78
2021/01/07 02:43:19;;;;;;;15.57;8.40;;;;;;;6.05;100.00;94269.88;10525252;28;20028;-78
2021/01/07 02:48:19;;;;;;;16.27;7.93;;;;;;;6.16;100.00;94282.22;10533267;28;20311;-78
2021/01/07 02:53:20;;;;;;;16.23;8.70;;;;;;;6.21;100.00;94281.44;10515015;28;20059;-77
2021/01/07 02:58:20;;;;;;;13.83;6.73;;;;;;;6.12;100.00;94270.44;10532186;28;20380;-78
2021/01/07 03:03:21;;;;;;;15.55;7.65;;;;;;;6.18;100.00;94280.09;10533027;28;20352;-78
2021/01/07 03:08:21;;;;;;;9.83;5.20;;;;;;;6.25;100.00;94269.19;10513513;28;20073;-77
2021/01/07 03:13:21;;;;;;;15.70;6.13;;;;;;;6.31;100.00;94268.97;10534504;28;20036;-78
2021/01/07 03:18:22;;;;;;;7.67;4.23;;;;;;;6.45;100.00;94284.53;10516014;28;20597;-78
2021/01/07 03:23:22;;;;;;;12.50;4.70;;;;;;;6.65;100.00;94295.31;10516106;28;20027;-78
2021/01/07 03:28:22;;;;;;;7.13;3.70;;;;;;;6.87;100.00;94278.34;10533359;28;20385;-79
2021/01/07 03:33:23;;;;;;;8.50;4.77;;;;;;;6.99;100.00;94284.28;10531075;28;20098;-77
2021/01/07 03:38:23;;;;;;;12.30;4.93;;;;;;;7.00;100.00;94291.22;10532353;28;20276;-78
2021/01/07 03:43:24;;;;;;;8.40;5.43;;;;;;;6.91;100.00;94274.09;10532197;28;20024;-78
2021/01/07 03:48:24;;;;;;;11.03;5.90;;;;;;;6.94;100.00;94281.56;10513972;28;20028;-78
2021/01/07 03:53:24;;;;;;;16.80;6.20;;;;;;;6.88;100.00;94276.47;10531767;28;20286;-78
2021/01/07 03:58:25;;;;;;;11.93;5.83;;;;;;;6.93;100.00;94277.28;10531399;28;20115;-77
2021/01/07 04:03:25;;;;;;;13.93;5.00;;;;;;;6.94;100.00;94259.41;10494056;28;20275;-77
2021/01/07 04:08:26;;;;;;;3.50;2.90;;;;;;;6.99;100.00;94252.22;10490012;28;20511;-79
2021/01/07 04:13:26;;;;;;;3.95;2.50;;;;;;;7.13;100.00;94239.16;10492272;28;20134;-79
2021/01/07 04:18:26;;;;;;;2.90;1.73;;;;;;;7.40;100.00;94256.06;10473626;28;20147;-78
2021/01/07 04:23:27;;;;;;;2.70;1.55;;;;;;;7.45;100.00;94259.53;10491029;28;20283;-79
2021/01/07 04:28:27;;;;;;;4.10;1.80;;;;;;;7.53;100.00;94260.88;10491302;28;20082;-78
2021/01/07 04:33:27;;;;;;;1.43;1.10;;;;;;;7.71;100.00;94262.22;10477058;28;20028;-79
2021/01/07 04:38:28;;;;;;;2.17;1.30;;;;;;;7.89;100.00;94274.28;10500354;28;20274;-79
2021/01/07 04:43:28;;;;;;;3.15;1.33;;;;;;;8.23;100.00;94287.09;10499607;28;20040;-79
2021/01/07 04:48:29;;;;;;;2.20;0.73;;;;;;;8.39;100.00;94269.16;10522682;28;20028;-78
2021/01/07 04:53:30;;;;;;;1.92;1.27;;;;;;;8.59;100.00;94270.22;10539611;28;20282;-79
2021/01/07 04:58:30;;;;;;;5.68;2.13;;;;;;;8.65;100.00;94259.22;10520638;28;20039;-78
2021/01/07 05:03:32;;;;;;;7.90;3.45;;;;;;;8.64;100.00;94284.41;10539336;28;20031;-79
2021/01/07 05:08:32;;;;;;;0.50;0.50;;;;;;;8.71;100.00;94282.25;10539323;28;20023;-80
2021/01/07 05:13:33;;;;;;;2.17;1.50;;;;;;;8.68;100.00;94293.50;10539937;28;20402;-78
2021/01/07 05:18:35;;;;;;;2.13;1.30;;;;;;;8.65;100.00;94290.56;10556040;28;20117;-78
2021/01/07 05:23:36;;;;;;;11.13;3.40;;;;;;;8.72;100.00;94305.28;10507582;28;20286;-79
2021/01/07 05:28:36;;;;;;;3.20;1.70;;;;;;;8.57;100.00;94304.50;10543607;28;20536;-79
2021/01/07 05:33:39;;;;;;;2.60;1.75;;;;;;;8.51;100.00;94295.66;10521430;28;20042;-79
2021/01/07 05:38:40;;;;;;;4.65;2.38;;;;;;;8.58;100.00;94306.13;10535718;28;20520;-79
2021/01/07 05:43:42;;;;;;;4.53;1.80;;;;;;;8.50;100.00;94304.81;10518117;28;20039;-75
2021/01/07 05:48:44;;;;;;;7.10;3.10;;;;;;;8.43;100.00;94296.19;10523399;28;20442;-75
2021/01/07 05:53:45;;;;;;;2.10;1.48;;;;;;;8.50;100.00;94291.41;10530648;28;20035;-76
2021/01/07 05:58:51;;;;;;;3.53;2.17;;;;;;;8.52;100.00;94282.00;10532864;28;20090;-75
2021/01/07 06:03:54;;;;;;;2.60;1.40;;;;;;;8.57;100.00;94299.13;10506243;28;20553;-80
2021/01/07 06:08:55;;;;;;;1.77;1.08;;;;;;;8.72;100.00;94288.38;10502506;28;20353;-75
2021/01/07 06:13:57;;;;;;;3.70;1.48;;;;;;;8.83;100.00;94298.03;10523381;28;20042;-75
2021/01/07 06:19:32;;;;;;;1.90;1.40;;;;;;;8.92;100.00;94303.63;10531559;28;20058;-75
2021/01/07 06:24:35;;;;;;;2.63;1.00;;;;;;;9.07;100.00;94276.75;10547913;28;20036;-75
2021/01/07 06:29:35;;;;;;;1.10;1.00;;;;;;;9.19;100.00;94284.47;10514625;28;20027;-75
2021/01/07 06:34:43;;;;;;;1.30;1.07;;;;;;;9.20;100.00;94290.66;10532580;28;20107;-76
2021/01/07 06:39:44;;;;;;;2.97;1.33;;;;;;;9.18;100.00;94293.59;10513954;28;20314;-75
2021/01/07 06:44:45;;;;;;;1.88;0.90;;;;;;;9.19;100.00;94305.13;10491697;28;20131;-76
2021/01/07 06:49:48;;;;;;;2.35;1.42;;;;;;;9.19;100.00;94315.84;10472220;28;20032;-75
2021/01/07 06:54:48;;;;;;;5.88;1.40;;;;;;;9.20;100.00;94323.63;10524093;28;20034;-75
2021/01/07 07:00:04;;;;;;;3.00;1.85;;;;;;;9.20;100.00;94309.41;10531189;28;20036;-74
2021/01/07 07:05:08;;;;;;;5.20;2.85;;;;;;;9.27;100.00;94298.41;10531266;28;20925;-76
2021/01/07 07:10:17;;;;;;;5.40;2.00;;;;;;;9.23;100.00;94331.09;10523255;28;20021;-76
2021/01/07 07:15:21;;;;;;;4.70;1.27;;;;;;;9.40;99.61;94354.94;10478848;28;20118;-75
2021/01/07 07:20:26;;;;;;;6.60;2.00;;;;;;;9.63;100.00;94349.97;10488513;28;20055;-75
2021/01/07 07:25:27;;;;;;;2.33;1.60;;;;;;;9.70;98.18;94357.75;10488611;28;20032;-75
2021/01/07 07:30:29;;;;;;;6.43;1.17;;;;;;;9.88;95.33;94365.13;10488396;28;20032;-76
2021/01/07 07:35:34;;;;;;;3.08;1.38;;;;;;;9.95;94.47;94370.22;10488565;28;20020;-75
2021/01/07 07:40:41;;;;;;;5.15;1.52;;;;;;;9.92;96.33;94363.50;10488751;28;20036;-76
2021/01/07 07:45:42;;;;;;;2.90;1.55;;;;;;;9.94;95.94;94381.22;10488086;28;20020;-75
2021/01/07 07:50:43;;;;;;;2.90;1.70;;;;;;;9.93;97.76;94399.19;10488069;28;20036;-74
2021/01/07 07:55:44;;;;;;;15.17;6.40;;;;;;;10.06;100.00;94417.38;10487770;28;20424;-76
2021/01/07 08:00:51;;;;;;;14.68;6.97;;;;;;;9.88;100.00;94412.66;10503939;28;20122;-76
2021/01/07 08:05:52;;;;;;;21.88;7.85;;;;;;;9.48;100.00;94441.25;10526561;28;20103;-76
2021/01/07 08:10:54;;;;;;;9.13;3.13;;;;;;;9.25;100.00;94467.56;10526610;28;20055;-76
2021/01/07 08:16:02;;;;;;;4.85;1.00;;;;;;;8.45;100.00;94481.53;10525255;28;20486;-76
2021/01/07 08:21:09;;;;;;;20.70;1.63;;;;;;;7.76;100.00;94511.03;10521366;28;20687;-76
2021/01/07 08:26:24;;;;;;;2.40;0.70;;;;;;;7.40;100.00;94526.06;10526074;28;20032;-75
2021/01/07 08:31:29;;;;;;;0.80;0.50;;;;;;;6.46;100.00;94548.56;10524558;28;20024;-76
2021/01/07 08:36:31;;;;;;;2.03;1.15;;;;;;;5.56;100.00;94562.13;10501026;28;20073;-76
2021/01/07 08:41:32;;;;;;;4.80;1.20;;;;;;;4.98;100.00;94572.19;10493926;28;20024;-80
2021/01/07 08:46:41;;;;;;;3.03;1.30;;;;;;;4.65;100.00;94575.63;10484749;28;20029;-77
2021/01/07 08:51:45;;;;;;;2.30;0.90;;;;;;;4.50;100.00;94581.50;10485266;28;20028;-74
2021/01/07 08:56:48;;;;;;;1.52;0.93;;;;;;;3.97;100.00;94589.53;10478741;28;20032;-75
2021/01/07 09:02:26;;;;;;;2.78;0.90;;;;;;;3.66;100.00;94599.53;10499326;28;20059;-74
2021/01/07 09:07:27;;;;;;;1.40;0.82;;;;;;;3.73;100.00;94602.88;10397626;28;20059;-74
2021/01/07 09:12:27;;;;;;;1.13;0.67;;;;;;;3.56;100.00;94601.97;10461744;28;20047;-74
2021/01/07 09:17:45;;;;;;;0.77;0.77;;;;;;;3.52;100.00;94598.97;10484921;28;20348;-74
2021/01/07 09:22:47;;;;;;;0.73;0.55;;;;;;;3.37;100.00;94596.78;10491215;28;20306;-75
2021/01/07 09:27:50;;;;;;;2.15;1.00;;;;;;;3.69;100.00;94588.44;10491824;28;20043;-74
2021/01/07 09:32:51;;;;;;;2.55;1.75;;;;;;;3.96;100.00;94584.47;10492168;28;20032;-74
2021/01/07 09:37:52;;;;;;;5.60;1.40;;;;;;;4.49;100.00;94575.34;10491730;28;20035;-75
2021/01/07 09:42:53;;;;;;;4.55;0.95;;;;;;;4.72;100.00;94593.06;10492020;28;20041;-75
2021/01/07 09:47:54;;;;;;;1.10;0.98;;;;;;;4.83;100.00;94594.06;10491718;28;20029;-75
2021/01/07 09:52:54;;;;;;;1.63;1.03;;;;;;;4.90;100.00;94594.72;10508687;28;20106;-75
2021/01/07 09:57:55;;;;;;;3.05;1.17;;;;;;;4.52;100.00;94598.84;10533040;28;20290;-75
2021/01/07 10:02:55;;;;;;;7.05;1.80;;;;;;;4.71;100.00;94595.97;10532807;28;20430;-74
2021/01/07 10:07:58;;;;;;;2.63;1.50;;;;;;;4.84;100.00;94598.31;10532342;28;20758;-75
2021/01/07 10:12:58;;;;;;;2.88;1.50;;;;;;;4.96;100.00;94600.94;10532279;28;20352;-75
2021/01/07 10:17:58;;;;;;;2.73;1.47;;;;;;;4.98;100.00;94612.13;10494521;28;20025;-74
2021/01/07 10:23:04;;;;;;;3.03;1.50;;;;;;;4.96;100.00;94590.28;10472268;28;20282;-74
2021/01/07 10:28:08;;;;;;;1.92;1.40;;;;;;;4.99;100.00;94587.13;10489369;28;20032;-75
2021/01/07 10:33:08;;;;;;;5.13;1.80;;;;;;;5.02;100.00;94594.63;10488274;28;20086;-75
2021/01/07 10:38:10;;;;;;;7.95;2.95;;;;;;;5.04;100.00;94583.75;10488788;28;20113;-75
2021/01/07 10:43:12;;;;;;;6.80;1.98;;;;;;;5.10;100.00;94570.25;10487528;28;20056;-75
2021/01/07 10:48:14;;;;;;;2.85;1.60;;;;;;;5.18;100.00;94566.38;10488872;28;20028;-76
2021/01/07 10:53:39;;;;;;;3.90;2.00;;;;;;;5.25;100.00;94564.34;10492567;28;20066;-75
2021/01/07 10:58:42;;;;;;;3.92;1.17;;;;;;;5.23;100.00;94574.47;10529833;28;20119;-74
2021/01/07 11:04:06;;;;;;;16.77;2.53;;;;;;;5.29;100.00;94573.47;10528938;28;20016;-75
2021/01/07 11:09:15;;;;;;;2.55;1.40;;;;;;;5.13;100.00;94574.28;10529712;28;20063;-75
2021/01/07 11:14:25;;;;;;;8.20;1.70;;;;;;;5.05;100.00;94578.19;10529393;28;20038;-75
2021/01/07 11:19:26;;;;;;;8.40;2.58;;;;;;;5.03;100.00;94584.78;10529465;28;20048;-75
2021/01/07 11:24:28;;;;;;;2.35;1.42;;;;;;;4.93;100.00;94580.13;10511232;28;20512;-74
2021/01/07 11:29:29;;;;;;;5.53;1.65;;;;;;;4.87;100.00;94597.03;10528853;28;20497;-75
2021/01/07 11:34:32;;;;;;;3.72;1.95;;;;;;;4.98;100.00;94588.16;10510535;28;20036;-76
2021/01/07 11:39:47;;;;;;;7.18;1.88;;;;;;;5.05;100.00;94580.03;10528316;28;20138;-75
2021/01/07 11:44:59;;;;;;;5.78;2.58;;;;;;;4.95;100.00;94591.31;10527261;28;20059;-79
2021/01/07 11:50:02;;;;;;;7.70;3.13;;;;;;;4.77;100.00;94585.19;10518871;28;20759;-78
2021/01/07 11:55:03;;;;;;;6.15;1.90;;;;;;;4.38;100.00;94586.84;10512387;28;20500;-77
2021/01/07 12:00:04;;;;;;;4.10;2.20;;;;;;;4.56;100.00;94588.53;10529047;28;20028;-77
2021/01/07 12:05:06;;;;;;;8.23;2.05;;;;;;;4.51;100.00;94583.91;10529451;28;20024;-80
2021/01/07 12:10:09;;;;;;;10.15;3.75;;;;;;;4.56;100.00;94602.66;10497143;28;20028;-78
2021/01/07 12:15:16;;;;;;;6.50;4.20;;;;;;;4.58;100.00;94602.41;10488091;28;20163;-79
2021/01/07 12:20:17;;;;;;;2.70;1.13;;;;;;;4.66;100.00;94611.84;10470143;28;20041;-79
2021/01/07 12:25:17;;;;;;;5.45;2.53;;;;;;;4.60;100.00;94606.44;10488241;28;20043;-78
2021/01/07 12:30:19;;;;;;;4.13;1.67;;;;;;;4.65;100.00;94620.88;10487540;28;20024;-77
2021/01/07 12:35:24;;;;;;;3.17;2.00;;;;;;;4.65;100.00;94620.88;10487002;28;20020;-78
2021/01/07 12:40:30;;;;;;;4.70;2.30;;;;;;;4.72;100.00;94633.00;10499414;28;20081;-77
2021/01/07 12:45:33;;;;;;;2.13;1.45;;;;;;;4.79;100.00;94627.53;10527997;28;20016;-77
2021/01/07 12:50:34;;;;;;;4.97;1.80;;;;;;;4.56;100.00;94633.75;10509012;28;20099;-77
2021/01/07 12:55:34;;;;;;;7.38;3.03;;;;;;;4.70;100.00;94615.66;10522965;28;20025;-77
2021/01/07 13:01:00;;;;;;;514.22;320.52;;;;;;;4.80;100.00;94623.84;10493180;28;20418;-77
2021/01/07 13:06:02;;;;;;;9.80;3.30;;;;;;;4.76;100.00;94628.03;10491365;28;20442;-77
2021/01/07 13:11:03;;;;;;;9.65;4.28;;;;;;;4.76;100.00;94636.81;10492567;28;20099;-77
2021/01/07 13:16:04;;;;;;;5.25;2.92;;;;;;;4.79;100.00;94628.34;10492531;28;20154;-77
2021/01/07 13:21:05;;;;;;;7.15;3.72;;;;;;;4.81;100.00;94646.72;10492726;28;20123;-77
2021/01/07 13:26:06;;;;;;;8.20;4.95;;;;;;;4.76;100.00;94639.47;10492773;28;20036;-78
2021/01/07 13:31:07;;;;;;;7.18;3.72;;;;;;;4.86;100.00;94648.69;10493106;28;20036;-78
2021/01/07 13:36:08;;;;;;;5.57;3.60;;;;;;;4.61;100.00;94658.63;10491865;28;20039;-78
2021/01/07 13:41:09;;;;;;;6.70;3.67;;;;;;;4.09;100.00;94654.16;10491270;28;20032;-78
2021/01/07 13:46:18;;;;;;;5.10;3.42;;;;;;;4.00;100.00;94668.84;10491118;28;20066;-78
2021/01/07 13:51:20;;;;;;;3.30;2.17;;;;;;;3.82;100.00;94655.69;10495451;28;20052;-77
2021/01/07 13:56:20;;;;;;;5.53;2.05;;;;;;;3.52;100.00;94662.75;10524975;28;20040;-77
2021/01/07 14:01:21;;;;;;;3.95;2.25;;;;;;;3.21;100.00;94664.69;10532765;28;20031;-77
2021/01/07 14:06:22;;;;;;;7.88;2.67;;;;;;;3.19;100.00;94660.63;10533290;28;20023;-78
2021/01/07 14:11:26;;;;;;;4.70;2.75;;;;;;;3.05;100.00;94662.69;10532471;28;20039;-78
2021/01/07 14:16:27;;;;;;;3.33;2.38;;;;;;;2.94;100.00;94658.16;10533417;28;20059;-78
2021/01/07 14:21:32;;;;;;;2.70;1.70;;;;;;;2.97;100.00;94649.72;10501309;28;20135;-77
2021/01/07 14:26:33;;;;;;;4.40;2.30;;;;;;;2.93;100.00;94662.66;10490122;28;20032;-77
2021/01/07 14:31:34;;;;;;;4.75;2.50;;;;;;;3.00;100.00;94666.03;10476102;28;20530;-77
2021/01/07 14:36:40;;;;;;;9.18;3.58;;;;;;;3.06;100.00;94662.44;10448200;28;20037;-78
2021/01/07 14:41:40;;;;;;;3.92;2.40;;;;;;;3.08;100.00;94664.88;10468372;28;20075;-77
2021/01/07 14:46:43;;;;;;;4.80;2.78;;;;;;;3.14;100.00;94668.47;10489001;28;20930;-78
2021/01/07 14:51:48;;;;;;;5.25;3.15;;;;;;;3.34;100.00;94665.50;10471784;28;20031;-78
2021/01/07 14:56:57;;;;;;;3.88;1.95;;;;;;;3.34;100.00;94668.97;10479982;28;20130;-77
2021/01/07 15:01:57;;;;;;;6.45;2.47;;;;;;;3.23;100.00;94681.19;10487581;28;20028;-78
2021/01/07 15:07:24;;;;;;;5.77;2.70;;;;;;;3.30;100.00;94674.97;10489156;28;20807;-77
2021/01/07 15:12:28;;;;;;;12.52;3.53;;;;;;;3.46;100.00;94678.78;10487784;28;20090;-77
2021/01/07 15:17:53;;;;;;;9.43;4.43;;;;;;;3.62;100.00;94677.31;10465247;28;20056;-77
2021/01/07 15:23:05;;;;;;;10.30;4.75;;;;;;;3.68;100.00;94660.44;10486853;28;20126;-78
2021/01/07 15:28:14;;;;;;;15.93;6.88;;;;;;;3.77;100.00;94669.69;10471721;28;20020;-78
2021/01/07 15:33:32;;;;;;;10.90;5.72;;;;;;;3.56;100.00;94660.44;10516055;28;20787;-77
2021/01/07 15:39:05;;;;;;;13.67;7.17;;;;;;;3.44;100.00;94673.72;10487748;28;20045;-76
2021/01/07 15:44:34;;;;;;;23.05;9.68;;;;;;;3.58;100.00;94663.66;10477007;28;20832;-76
2021/01/07 15:49:59;;;;;;;15.30;8.77;;;;;;;3.49;100.00;94659.72;10471626;28;20048;-77
2021/01/07 15:55:22;;;;;;;17.50;8.25;;;;;;;3.62;100.00;94674.66;10495171;28;20063;-77
2021/01/07 16:00:28;;;;;;;22.55;8.88;;;;;;;3.55;100.00;94680.88;10526219;28;20138;-76
2021/01/07 16:05:34;;;;;;;12.13;6.57;;;;;;;3.47;100.00;94678.56;10503003;28;20033;-77
2021/01/07 16:10:34;;;;;;;13.73;7.47;;;;;;;3.37;100.00;94678.31;10467862;28;20107;-78
2021/01/07 16:15:36;;;;;;;20.00;8.73;;;;;;;3.24;100.00;94676.69;10486214;28;20760;-76
2021/01/07 16:20:39;;;;;;;14.45;7.55;;;;;;;3.12;100.00;94684.63;10486543;28;20329;-78
2021/01/07 16:26:11;;;;;;;19.08;10.05;;;;;;;2.95;100.00;94684.47;10486955;28;20032;-78
2021/01/07 16:31:12;;;;;;;18.92;8.57;;;;;;;3.02;100.00;94692.34;10502827;28;20031;-78
2021/01/07 16:36:13;;;;;;;20.30;9.45;;;;;;;3.13;100.00;94677.47;10499947;28;20078;-78
2021/01/07 16:41:14;;;;;;;16.27;7.50;;;;;;;3.18;100.00;94680.25;10500018;28;20161;-76
2021/01/07 16:46:14;;;;;;;16.88;8.52;;;;;;;3.25;100.00;94688.91;10536106;28;20027;-78
2021/01/07 16:51:15;;;;;;;14.90;8.07;;;;;;;3.38;100.00;94686.06;10534896;28;20028;-76
2021/01/07 16:56:15;;;;;;;20.05;9.82;;;;;;;3.43;100.00;94685.38;10510756;28;20020;-78
2021/01/07 17:01:16;;;;;;;24.58;11.70;;;;;;;3.63;100.00;94689.53;10522339;28;20016;-76
2021/01/07 17:06:16;;;;;;;704.88;395.80;;;;;;;3.67;100.00;94707.47;10538002;28;20517;-76
2021/01/07 17:11:17;;;;;;;666.92;379.67;;;;;;;3.75;100.00;94698.31;10536018;28;20490;-77
2021/01/07 17:16:17;;;;;;;73.90;50.40;;;;;;;3.81;100.00;94694.75;10537132;28;20073;-76
2021/01/07 17:21:18;;;;;;;353.40;322.67;;;;;;;3.86;100.00;94691.41;10534699;28;20059;-76
2021/01/07 17:26:23;;;;;;;39.67;32.42;;;;;;;3.88;100.00;94691.97;10538819;28;20367;-78
2021/01/07 17:31:23;;;;;;;353.83;317.58;;;;;;;3.86;100.00;94700.19;10519382;28;20525;-78
2021/01/07 17:36:24;;;;;;;23.65;11.40;;;;;;;3.68;100.00;94677.16;10517207;28;20020;-78
2021/01/07 17:41:25;;;;;;;67.10;61.65;;;;;;;3.71;100.00;94676.72;10531743;28;20339;-78
2021/01/07 17:46:26;;;;;;;34.30;29.95;;;;;;;3.75;100.00;94672.56;10532014;28;20022;-78
2021/01/07 17:51:26;;;;;;;85.43;77.03;;;;;;;3.71;100.00;94675.91;10532408;28;20028;-77
2021/01/07 17:56:27;;;;;;;23.87;13.50;;;;;;;3.67;100.00;94683.56;10515274;28;20068;-75
2021/01/07 18:01:31;;;;;;;29.55;13.32;;;;;;;3.67;100.00;94678.22;10490554;28;20274;-75
2021/01/07 18:06:33;;;;;;;29.83;13.00;;;;;;;3.42;100.00;94673.94;10490397;28;20075;-75
2021/01/07 18:11:34;;;;;;;31.85;14.70;;;;;;;3.30;100.00;94665.13;10490413;28;20028;-75
2021/01/07 18:16:35;;;;;;;33.25;14.95;;;;;;;3.30;100.00;94661.69;10491736;28;20093;-75
2021/01/07 18:21:35;;;;;;;31.33;15.30;;;;;;;3.12;100.00;94663.38;10509546;28;20435;-75
2021/01/07 18:26:35;;;;;;;31.70;12.60;;;;;;;3.09;100.00;94669.16;10531545;28;20028;-75
2021/01/07 18:31:36;;;;;;;27.25;12.68;;;;;;;3.16;100.00;94659.22;10505272;28;20278;-76
2021/01/07 18:36:37;;;;;;;33.60;15.07;;;;;;;3.16;100.00;94666.41;10489177;28;20029;-75
2021/01/07 18:41:38;;;;;;;31.85;14.77;;;;;;;3.10;100.00;94664.63;10516863;28;20366;-75
2021/01/07 18:46:39;;;;;;;30.52;16.55;;;;;;;2.95;100.00;94671.19;10530799;28;20047;-75
2021/01/07 18:51:39;;;;;;;26.58;15.18;;;;;;;2.94;100.00;94666.91;10502683;28;20024;-76
2021/01/07 18:56:39;;;;;;;28.83;14.03;;;;;;;3.06;100.00;94656.34;10520678;28;20380;-75
2021/01/07 19:01:40;;;;;;;32.38;15.55;;;;;;;3.21;100.00;94663.84;10530428;28;20020;-75
2021/01/07 19:06:40;;;;;;;37.90;16.47;;;;;;;3.35;100.00;94652.00;10531059;28;20024;-74
2021/01/07 19:11:41;;;;;;;34.67;17.07;;;;;;;3.41;100.00;94642.28;10526182;28;20785;-74
2021/01/07 19:16:41;;;;;;;29.92;14.60;;;;;;;3.28;100.00;94642.50;10519165;28;20788;-74
2021/01/07 19:21:42;;;;;;;41.83;17.77;;;;;;;3.20;100.00;94646.31;10508234;28;20080;-74
2021/01/07 19:26:42;;;;;;;32.67;18.38;;;;;;;3.10;100.00;94641.56;10506103;28;20064;-75
2021/01/07 19:31:43;;;;;;;26.50;16.17;;;;;;;3.00;100.00;94636.00;10499085;28;20503;-74
2021/01/07 19:36:47;;;;;;;37.50;17.40;;;;;;;3.00;100.00;94626.19;10433723;28;20086;-75
2021/01/07 19:41:48;;;;;;;29.98;15.75;;;;;;;3.16;100.00;94618.59;10479536;28;20325;-75
2021/01/07 19:46:48;;;;;;;29.48;15.85;;;;;;;3.23;100.00;94612.13;10444627;28;20109;-75
2021/01/07 19:51:49;;;;;;;30.10;16.33;;;;;;;3.35;100.00;94596.22;10484391;28;20108;-75
2021/01/07 19:56:49;;;;;;;34.08;17.30;;;;;;;3.34;100.00;94596.44;10486293;28;20064;-75
2021/01/07 20:01:50;;;;;;;27.80;16.07;;;;;;;3.40;100.00;94583.06;10462630;28;20118;-75
2021/01/07 20:06:51;;;;;;;30.33;15.48;;;;;;;3.40;100.00;94583.06;10444614;28;20032;-75
2021/01/07 20:11:51;;;;;;;32.95;17.80;;;;;;;3.47;100.00;94574.13;10444348;28;20029;-75
2021/01/07 20:16:52;;;;;;;30.50;14.57;;;;;;;3.58;100.00;94584.75;10467522;28;20032;-75
2021/01/07 20:21:52;;;;;;;25.10;14.43;;;;;;;3.52;100.00;94585.69;10504128;28;20049;-75
2021/01/07 20:26:52;;;;;;;27.65;15.23;;;;;;;3.56;100.00;94578.88;10484724;28;20270;-75
2021/01/07 20:31:53;;;;;;;27.58;15.38;;;;;;;3.66;100.00;94572.16;10484061;28;20032;-75
2021/01/07 20:36:53;;;;;;;27.25;14.68;;;;;;;3.64;100.00;94571.56;10516732;28;20046;-75
2021/01/07 20:41:54;;;;;;;28.80;14.87;;;;;;;3.71;100.00;94566.94;10495130;28;20036;-74
2021/01/07 20:46:54;;;;;;;33.10;16.60;;;;;;;3.74;100.00;94558.50;10485167;28;20107;-74
2021/01/07 20:51:55;;;;;;;38.15;18.92;;;;;;;3.82;100.00;94560.00;10485259;28;20032;-75
2021/01/07 20:56:56;;;;;;;27.63;15.57;;;;;;;3.82;100.00;94558.13;10519004;28;20177;-74
2021/01/07 21:01:57;;;;;;;26.52;15.40;;;;;;;3.86;100.00;94556.63;10516797;28;20027;-75
2021/01/07 21:07:01;;;;;;;24.33;13.23;;;;;;;3.84;100.00;94561.38;10491529;28;20040;-75
2021/01/07 21:12:04;;;;;;;26.42;14.73;;;;;;;3.80;100.00;94546.94;10484788;28;20386;-75
2021/01/07 21:17:04;;;;;;;26.88;14.88;;;;;;;3.68;100.00;94552.25;10492275;28;20032;-74
2021/01/07 21:22:05;;;;;;;30.30;16.42;;;;;;;3.42;100.00;94541.09;10492573;28;20056;-75
2021/01/07 21:27:11;;;;;;;42.72;19.33;;;;;;;3.36;100.00;94539.41;10493379;28;20073;-74
2021/01/07 21:32:12;;;;;;;39.17;19.33;;;;;;;3.42;100.00;94541.09;10492671;28;20028;-75
2021/01/07 21:37:14;;;;;;;36.20;18.00;;;;;;;3.58;100.00;94520.97;10492259;28;20033;-75
2021/01/07 21:42:16;;;;;;;41.00;17.92;;;;;;;3.46;100.00;94520.22;10491773;28;20521;-75
2021/01/07 21:47:17;;;;;;;40.20;19.45;;;;;;;3.48;100.00;94512.81;10491927;28;20056;-75
2021/01/07 21:52:18;;;;;;;35.90;20.30;;;;;;;3.46;100.00;94504.28;10491658;28;20036;-75
2021/01/07 21:57:18;;;;;;;41.00;19.93;;;;;;;3.40;100.00;94494.56;10528777;28;20448;-74
2021/01/07 22:02:21;;;;;;;43.13;21.73;;;;;;;3.54;100.00;94495.91;10532069;28;20270;-74
2021/01/07 22:07:21;;;;;;;46.65;22.52;;;;;;;3.55;100.00;94492.22;10507817;28;20599;-75
2021/01/07 22:12:21;;;;;;;21.53;11.17;;;;;;;3.55;100.00;94467.50;10490688;28;20032;-75
2021/01/07 22:17:22;;;;;;;31.80;14.47;;;;;;;3.33;100.00;94472.63;10491299;28;20132;-75
2021/01/07 22:22:22;;;;;;;30.70;15.13;;;;;;;3.30;100.00;94475.78;10491065;28;21196;-75
2021/01/07 22:27:23;;;;;;;33.78;17.17;;;;;;;3.41;100.00;94467.75;10489955;28;20348;-75
2021/01/07 22:32:24;;;;;;;36.30;16.85;;;;;;;3.41;100.00;94461.66;10502738;28;20028;-75
2021/01/07 22:37:24;;;;;;;40.28;18.52;;;;;;;3.35;100.00;94450.13;10499740;28;20112;-75
2021/01/07 22:42:25;;;;;;;56.67;24.45;;;;;;;3.39;100.00;94432.66;10499391;28;20499;-75
2021/01/07 22:47:25;;;;;;;53.05;24.75;;;;;;;3.30;100.00;94438.59;10500753;28;20093;-76
2021/01/07 22:52:26;;;;;;;51.53;25.77;;;;;;;3.24;100.00;94441.13;10514323;28;20463;-76
2021/01/07 22:57:26;;;;;;;58.67;29.27;;;;;;;3.32;100.00;94417.91;10531114;28;20028;-76
2021/01/07 23:02:27;;;;;;;59.23;26.83;;;;;;;3.38;100.00;94423.06;10531507;28;20027;-76
2021/01/07 23:07:27;;;;;;;57.17;28.20;;;;;;;3.39;100.00;94421.22;10531405;28;20266;-76
2021/01/07 23:12:27;;;;;;;58.08;26.58;;;;;;;3.25;100.00;94415.38;10530353;28;20274;-76